createdAt,value
2023-03-29T00:00:49.693Z,2.00
2023-03-29T00:04:30.904Z,1.70
2023-03-29T00:08:04.826Z,1.50
2023-03-29T00:11:42.689Z,2.00
2023-03-29T00:15:43.926Z,2.30
2023-03-29T00:18:58.310Z,2.50
2023-03-29T00:22:56.801Z,2.80
2023-03-29T00:26:31.853Z,3.20
2023-03-29T00:29:51.429Z,2.90
2023-03-29T00:33:28.009Z,2.00
2023-03-29T00:37:08.849Z,3.40
2023-03-29T00:41:04.971Z,3.40
2023-03-29T00:44:55.364Z,3.00
2023-03-29T00:48:02.883Z,2.20
2023-03-29T00:51:41.448Z,3.30
2023-03-29T00:55:21.904Z,4.10
2023-03-29T00:59:00.431Z,3.50
2023-03-29T01:02:34.566Z,2.90
2023-03-29T01:06:10.565Z,2.00
2023-03-29T01:09:52.934Z,2.80
2023-03-29T01:13:34.382Z,3.30
2023-03-29T01:17:00.372Z,3.10
2023-03-29T01:21:14.467Z,3.20
2023-03-29T01:24:55.005Z,2.70
2023-03-29T01:28:31.472Z,4.70
2023-03-29T01:31:44.197Z,3.50
2023-03-29T01:35:21.059Z,2.60
2023-03-29T01:39:00.829Z,3.40
2023-03-29T01:42:58.643Z,3.80
2023-03-29T01:46:25.678Z,3.70
2023-03-29T01:50:23.949Z,3.30
2023-03-29T01:53:51.324Z,3.70
2023-03-29T01:57:09.178Z,2.30
2023-03-29T02:00:50.459Z,3.90
2023-03-29T02:04:26.571Z,4.50
2023-03-29T02:08:18.636Z,2.50
2023-03-29T02:11:37.029Z,3.90
2023-03-29T02:15:16.002Z,4.50
2023-03-29T02:18:53.069Z,2.20
2023-03-29T02:22:58.035Z,4.00
2023-03-29T02:26:10.291Z,5.10
2023-03-29T02:29:46.880Z,3.70
2023-03-29T02:33:52.388Z,3.00
2023-03-29T02:37:21.083Z,3.30
2023-03-29T02:40:58.465Z,4.20
2023-03-29T02:44:20.623Z,3.90
2023-03-29T02:47:58.175Z,2.50
2023-03-29T02:51:33.699Z,4.10
2023-03-29T02:55:14.951Z,3.40
2023-03-29T02:59:05.667Z,3.90
2023-03-29T03:02:25.919Z,3.70
2023-03-29T03:06:22.821Z,3.60
2023-03-29T03:09:59.662Z,4.90
2023-03-29T03:13:17.155Z,3.70
2023-03-29T03:17:13.373Z,3.30
2023-03-29T03:20:32.192Z,3.80
2023-03-29T03:24:08.938Z,4.00
2023-03-29T03:27:48.466Z,4.70
2023-03-29T03:31:24.869Z,4.80
2023-03-29T03:35:03.110Z,4.00
2023-03-29T03:39:02.985Z,4.30
2023-03-29T03:42:38.552Z,4.30
2023-03-29T03:45:55.806Z,4.70
2023-03-29T03:49:32.994Z,3.70
2023-03-29T03:53:10.498Z,7.10
2023-03-29T03:56:56.718Z,9.60
2023-03-29T04:00:28.725Z,9.20
2023-03-29T04:04:23.075Z,6.10
2023-03-29T04:07:41.368Z,5.70
2023-03-29T04:11:19.542Z,5.70
2023-03-29T04:15:17.247Z,5.60
2023-03-29T04:18:36.684Z,7.20
2023-03-29T04:22:32.324Z,7.20
2023-03-29T04:26:11.490Z,8.30
2023-03-29T04:29:29.266Z,5.80
2023-03-29T04:33:06.429Z,5.30
2023-03-29T04:36:43.730Z,6.90
2023-03-29T04:40:41.372Z,5.80
2023-03-29T04:44:16.782Z,5.90
2023-03-29T04:47:36.973Z,8.50
2023-03-29T04:51:34.340Z,8.30
2023-03-29T04:54:51.141Z,8.20
2023-03-29T04:58:32.195Z,8.50
2023-03-29T05:02:07.667Z,8.80
2023-03-29T05:05:44.086Z,10.80
2023-03-29T05:09:22.305Z,10.20
2023-03-29T05:12:59.512Z,9.20
2023-03-29T05:16:55.863Z,10.30
2023-03-29T05:20:19.181Z,11.50
2023-03-29T05:23:53.620Z,10.50
2023-03-29T05:27:32.021Z,11.10
2023-03-29T05:31:08.568Z,13.10
2023-03-29T05:34:49.865Z,14.10
2023-03-29T05:38:23.431Z,13.40
2023-03-29T05:42:00.950Z,12.00
2023-03-29T05:45:39.052Z,12.70
2023-03-29T05:49:37.285Z,11.90
2023-03-29T05:52:55.796Z,8.50
2023-03-29T05:56:31.759Z,7.50
2023-03-29T06:00:24.242Z,11.70
2023-03-29T06:03:49.388Z,9.70
2023-03-29T06:07:27.542Z,11.30
2023-03-29T06:11:05.803Z,10.60
2023-03-29T06:15:04.255Z,11.70
2023-03-29T06:18:30.307Z,11.30
2023-03-29T06:22:07.221Z,13.30
2023-03-29T06:25:45.912Z,10.60
2023-03-29T06:29:41.695Z,10.90
2023-03-29T06:33:01.095Z,10.20
2023-03-29T06:36:39.044Z,11.30
2023-03-29T06:40:17.753Z,12.60
2023-03-29T06:43:54.935Z,14.40
2023-03-29T06:47:31.646Z,16.50
2023-03-29T06:51:10.632Z,20.90
2023-03-29T06:55:07.121Z,13.10
2023-03-29T06:58:44.338Z,10.70
2023-03-29T07:02:02.879Z,12.00
2023-03-29T07:06:03.331Z,9.40
2023-03-29T07:09:19.626Z,7.40
2023-03-29T07:12:55.683Z,5.90
2023-03-29T07:16:37.723Z,4.80
2023-03-29T07:20:31.388Z,4.30
2023-03-29T07:23:48.952Z,3.70
2023-03-29T07:27:27.092Z,4.00
2023-03-29T07:31:06.827Z,2.50
2023-03-29T07:34:42.184Z,3.70
2023-03-29T07:38:22.055Z,3.50
2023-03-29T07:41:58.133Z,4.10
2023-03-29T07:45:35.270Z,3.20
2023-03-29T07:49:12.537Z,3.20
2023-03-29T07:52:51.108Z,4.20
2023-03-29T07:56:47.550Z,3.60
2023-03-29T08:00:15.719Z,4.00
2023-03-29T08:03:48.220Z,3.20
2023-03-29T08:07:44.075Z,3.50
2023-03-29T08:11:10.709Z,5.80
2023-03-29T08:14:55.410Z,3.70
2023-03-29T08:18:14.730Z,3.40
2023-03-29T08:21:52.032Z,3.20
2023-03-29T08:25:29.917Z,3.10
2023-03-29T08:29:08.962Z,3.00
2023-03-29T08:32:46.314Z,2.90
2023-03-29T08:36:22.430Z,2.40
2023-03-29T08:40:01.053Z,5.00
2023-03-29T08:43:52.285Z,2.60
2023-03-29T08:47:47.788Z,1.80
2023-03-29T08:51:44.403Z,4.00
2023-03-29T08:55:31.310Z,3.50
2023-03-29T08:58:57.464Z,3.50
2023-03-29T09:02:53.668Z,2.90
2023-03-29T09:06:28.665Z,3.90
2023-03-29T09:09:48.069Z,4.70
2023-03-29T09:13:59.006Z,4.50
2023-03-29T09:18:03.099Z,3.90
2023-03-29T09:21:58.092Z,4.70
2023-03-29T09:25:23.085Z,4.20
2023-03-29T09:28:53.135Z,3.90
2023-03-29T09:32:29.353Z,3.90
2023-03-29T09:36:04.580Z,3.70
2023-03-29T09:39:34.167Z,5.70
2023-03-29T09:43:17.225Z,3.60
2023-03-29T09:46:54.174Z,2.90
2023-03-29T09:50:39.192Z,4.10
2023-03-29T09:54:22.460Z,3.80
2023-03-29T09:57:47.173Z,3.80
2023-03-29T10:01:21.671Z,4.50
2023-03-29T10:05:01.007Z,3.40
2023-03-29T10:08:41.606Z,3.40
2023-03-29T10:12:16.146Z,3.20
2023-03-29T10:16:09.990Z,3.30
2023-03-29T10:19:35.050Z,4.10
2023-03-29T10:23:09.553Z,2.90
2023-03-29T10:27:09.219Z,2.60
2023-03-29T10:30:25.389Z,2.70
2023-03-29T10:34:06.367Z,2.80
2023-03-29T10:37:46.391Z,3.00
2023-03-29T10:41:35.514Z,3.90
2023-03-29T10:45:01.948Z,4.00
2023-03-29T10:48:31.880Z,3.40
2023-03-29T10:52:09.533Z,3.70
2023-03-29T10:56:23.029Z,2.50
2023-03-29T11:00:09.801Z,3.30
2023-03-29T11:03:55.667Z,4.60
2023-03-29T11:07:19.756Z,2.40
2023-03-29T11:10:40.876Z,2.50
2023-03-29T11:14:45.513Z,2.40
2023-03-29T11:18:02.375Z,2.40
2023-03-29T11:21:54.588Z,2.10
2023-03-29T11:25:40.032Z,3.00
2023-03-29T11:29:08.244Z,2.60
2023-03-29T11:32:53.103Z,2.80
2023-03-29T11:36:24.032Z,2.60
2023-03-29T11:39:49.195Z,2.70
2023-03-29T11:44:02.173Z,2.60
2023-03-29T11:47:29.878Z,1.80
2023-03-29T11:50:56.881Z,1.60
2023-03-29T11:54:57.752Z,2.10
2023-03-29T11:58:06.141Z,1.50
2023-03-29T12:02:28.529Z,2.00
2023-03-29T12:06:11.057Z,1.50
2023-03-29T12:09:45.988Z,1.70
2023-03-29T12:13:04.590Z,1.70
2023-03-29T12:16:43.691Z,1.90
2023-03-29T12:20:10.444Z,1.50
2023-03-29T12:24:03.397Z,1.60
2023-03-29T12:27:30.302Z,1.80
2023-03-29T12:31:34.383Z,1.20
2023-03-29T12:35:11.713Z,2.00
2023-03-29T12:38:34.203Z,1.30
2023-03-29T12:42:22.953Z,1.50
2023-03-29T12:45:54.065Z,1.30
2023-03-29T12:49:34.316Z,1.70
2023-03-29T12:53:23.181Z,1.70
2023-03-29T12:57:01.810Z,1.20
2023-03-29T13:00:32.767Z,1.20
2023-03-29T13:03:57.918Z,1.40
2023-03-29T13:07:47.271Z,1.90
2023-03-29T13:11:30.053Z,1.50
2023-03-29T13:14:57.949Z,2.10
2023-03-29T13:18:47.966Z,1.60
2023-03-29T13:22:27.470Z,2.30
2023-03-29T13:26:17.470Z,1.90
2023-03-29T13:29:42.712Z,2.50
2023-03-29T13:33:21.766Z,2.10
2023-03-29T13:36:54.704Z,1.90
2023-03-29T13:40:38.477Z,4.50
2023-03-29T13:43:55.767Z,3.00
2023-03-29T13:47:31.333Z,4.50
2023-03-29T13:51:18.649Z,4.30
2023-03-29T13:55:18.620Z,10.00
2023-03-29T13:58:24.288Z,5.40
2023-03-29T14:02:04.644Z,3.10
2023-03-29T14:06:03.667Z,4.10
2023-03-29T14:09:18.456Z,5.00
2023-03-29T14:13:18.797Z,7.50
2023-03-29T14:16:37.190Z,6.70
2023-03-29T14:20:14.963Z,5.40
2023-03-29T14:24:12.102Z,2.80
2023-03-29T14:27:31.782Z,2.50
2023-03-29T14:31:03.464Z,3.20
2023-03-29T14:34:42.699Z,3.20
2023-03-29T14:38:39.100Z,4.60
2023-03-29T14:42:21.991Z,7.50
2023-03-29T14:45:56.652Z,3.80
2023-03-29T14:49:16.204Z,4.20
2023-03-29T14:52:54.601Z,4.40
2023-03-29T14:56:49.128Z,4.70
2023-03-29T15:00:29.346Z,3.20
2023-03-29T15:04:04.973Z,3.90
2023-03-29T15:07:23.604Z,3.40
2023-03-29T15:11:26.700Z,2.00
2023-03-29T15:14:38.173Z,3.70
2023-03-29T15:18:17.139Z,6.90
2023-03-29T15:21:51.843Z,3.50
2023-03-29T15:25:46.162Z,3.40
2023-03-29T15:29:35.015Z,3.30
2023-03-29T15:32:44.436Z,3.30
2023-03-29T15:36:21.759Z,4.30
2023-03-29T15:40:25.734Z,4.80
2023-03-29T15:43:57.079Z,4.80
2023-03-29T15:47:19.922Z,8.80
2023-03-29T15:50:56.776Z,5.30
2023-03-29T15:54:31.489Z,4.00
2023-03-29T15:58:32.355Z,6.10
2023-03-29T16:01:46.827Z,5.00
2023-03-29T16:05:22.959Z,7.10
2023-03-29T16:09:00.919Z,5.20
2023-03-29T16:12:38.543Z,5.00
2023-03-29T16:16:35.226Z,5.90
2023-03-29T16:20:19.811Z,12.30
2023-03-29T16:23:31.918Z,14.70
2023-03-29T16:27:11.081Z,19.50
2023-03-29T16:30:46.877Z,18.00
2023-03-29T16:34:25.104Z,13.20
2023-03-29T16:38:02.214Z,8.20
2023-03-29T16:42:00.594Z,6.40
2023-03-29T16:45:19.370Z,8.30
2023-03-29T16:48:55.157Z,7.90
2023-03-29T16:52:32.863Z,7.80
2023-03-29T16:56:11.020Z,10.40
2023-03-29T16:59:48.124Z,11.40
2023-03-29T17:03:25.926Z,53.80
2023-03-29T17:07:03.675Z,43.60
2023-03-29T17:10:41.913Z,35.40
2023-03-29T17:14:38.179Z,16.60
2023-03-29T17:17:56.785Z,14.30
2023-03-29T17:21:34.674Z,14.70
2023-03-29T17:25:12.110Z,23.90
2023-03-29T17:29:08.717Z,29.00
2023-03-29T17:32:27.557Z,27.50
2023-03-29T17:36:07.575Z,23.50
2023-03-29T17:39:43.885Z,25.80
2023-03-29T17:43:22.986Z,31.40
2023-03-29T17:47:19.748Z,27.80
2023-03-29T17:50:36.026Z,27.50
2023-03-29T17:54:32.475Z,33.50
2023-03-29T17:57:51.745Z,42.80
2023-03-29T18:01:29.362Z,22.70
2023-03-29T18:05:09.387Z,23.40
2023-03-29T18:08:45.316Z,22.50
2023-03-29T18:12:40.704Z,28.10
2023-03-29T18:15:59.719Z,29.10
2023-03-29T18:19:37.321Z,19.60
2023-03-29T18:23:15.127Z,16.90
2023-03-29T18:26:56.542Z,17.60
2023-03-29T18:30:51.452Z,19.50
2023-03-29T18:34:09.280Z,18.80
2023-03-29T18:37:45.708Z,21.00
2023-03-29T18:41:24.620Z,21.50
2023-03-29T18:45:00.968Z,30.60
2023-03-29T18:48:58.664Z,24.50
2023-03-29T18:52:16.553Z,20.90
2023-03-29T18:55:55.678Z,27.10
2023-03-29T18:59:41.768Z,24.70
2023-03-29T19:03:31.431Z,20.50
2023-03-29T19:06:47.522Z,19.60
2023-03-29T19:10:24.789Z,20.80
2023-03-29T19:14:23.708Z,19.50
2023-03-29T19:17:40.084Z,16.70
2023-03-29T19:21:17.812Z,21.50
2023-03-29T19:25:14.452Z,19.70
2023-03-29T19:28:53.527Z,21.40
2023-03-29T19:32:33.156Z,17.20
2023-03-29T19:35:54.051Z,17.70
2023-03-29T19:39:49.322Z,20.00
2023-03-29T19:43:04.737Z,20.70
2023-03-29T19:46:42.690Z,21.50
2023-03-29T19:50:19.328Z,26.10
2023-03-29T19:53:57.400Z,26.50
2023-03-29T19:57:53.890Z,25.20
2023-03-29T20:01:12.839Z,22.50
2023-03-29T20:05:09.189Z,20.90
2023-03-29T20:08:27.627Z,18.40
2023-03-29T20:12:24.345Z,23.60
2023-03-29T20:15:45.708Z,21.70
2023-03-29T20:19:25.288Z,22.90
2023-03-29T20:23:04.535Z,21.40
2023-03-29T20:26:36.369Z,24.60
2023-03-29T20:30:14.412Z,22.50
2023-03-29T20:33:51.457Z,22.70
2023-03-29T20:37:31.720Z,22.60
2023-03-29T20:41:09.251Z,24.90
2023-03-29T20:44:50.479Z,22.20
2023-03-29T20:48:24.359Z,21.40
2023-03-29T20:52:04.548Z,25.20
2023-03-29T20:55:41.929Z,25.60
2023-03-29T20:59:15.251Z,24.20
2023-03-29T21:02:58.748Z,22.60
2023-03-29T21:06:30.320Z,20.30
2023-03-29T21:10:27.704Z,22.20
2023-03-29T21:13:46.463Z,21.40
2023-03-29T21:17:23.512Z,25.00
2023-03-29T21:21:04.520Z,19.10
2023-03-29T21:24:41.015Z,18.40
2023-03-29T21:28:16.549Z,20.80
2023-03-29T21:31:56.478Z,19.00
2023-03-29T21:35:50.733Z,19.30
2023-03-29T21:39:32.166Z,20.30
2023-03-29T21:42:51.311Z,22.80
2023-03-29T21:46:29.697Z,18.30
2023-03-29T21:50:05.876Z,18.20
2023-03-29T21:53:40.441Z,18.40
2023-03-29T21:57:18.042Z,15.00
2023-03-29T22:00:57.018Z,16.20
2023-03-29T22:04:36.442Z,20.50
2023-03-29T22:08:11.793Z,17.10
2023-03-29T22:11:53.010Z,16.90
2023-03-29T22:15:46.757Z,17.50
2023-03-29T22:19:23.018Z,39.50
2023-03-29T22:22:49.763Z,20.90
2023-03-29T22:26:44.068Z,18.00
2023-03-29T22:29:59.239Z,17.80
2023-03-29T22:33:38.316Z,21.80
2023-03-29T22:37:12.657Z,19.40
2023-03-29T22:40:53.553Z,18.00
2023-03-29T22:44:27.943Z,18.70
2023-03-29T22:48:07.375Z,13.90
2023-03-29T22:51:43.797Z,13.40
2023-03-29T22:55:21.474Z,13.90
2023-03-29T22:59:17.652Z,13.00
2023-03-29T23:02:37.264Z,10.90
2023-03-29T23:06:14.154Z,11.50
2023-03-29T23:09:51.953Z,10.90
2023-03-29T23:13:48.278Z,9.80
2023-03-29T23:17:13.191Z,8.00
2023-03-29T23:20:47.253Z,8.80
2023-03-29T23:24:22.764Z,9.20
2023-03-29T23:28:00.195Z,9.10
2023-03-29T23:31:37.930Z,7.20
2023-03-29T23:35:16.339Z,7.60
2023-03-29T23:38:53.580Z,8.50
2023-03-29T23:42:31.267Z,8.60
2023-03-29T23:46:11.590Z,7.50
2023-03-29T23:49:50.740Z,7.90
2023-03-29T23:53:25.417Z,7.10
2023-03-29T23:57:01.909Z,8.00
